Time;durP1;ratioP1;P1;durP2;ratioP2;P2;SDS_P1;SDS_P2;PMS_P1;PMS_P2;Temp;Humidity;BMP_temperature;BMP_pressure;BME280_temperature;BME280_humidity;BME280_pressure;Samples;Min_cycle;Max_cycle;Signal;HPM_P1;HPM_P2
2023/06/22 00:02:22;;;;;;;12.13;9.43;;;;;;;26.92;50.27;101536.72;5003133;28;98785;-61
2023/06/22 00:04:48;;;;;;;10.82;9.70;;;;;;;27.07;49.75;101543.44;5007499;28;96846;-61
2023/06/22 00:07:15;;;;;;;9.55;8.50;;;;;;;27.19;49.87;101539.59;5007072;28;96983;-60
2023/06/22 00:09:41;;;;;;;10.32;8.57;;;;;;;27.23;49.70;101543.75;5008404;28;99159;-60
2023/06/22 00:12:09;;;;;;;10.55;8.35;;;;;;;27.01;50.30;101540.44;5007784;28;98902;-60
2023/06/22 00:14:36;;;;;;;13.38;8.38;;;;;;;27.09;50.19;101540.59;5008815;28;97037;-60
2023/06/22 00:17:02;;;;;;;13.55;8.50;;;;;;;26.95;50.19;101544.56;5012905;27;97275;-61
2023/06/22 00:19:29;;;;;;;9.30;8.32;;;;;;;27.17;50.03;101547.03;4999264;28;99640;-61
2023/06/22 00:21:55;;;;;;;12.00;9.43;;;;;;;27.09;49.67;101549.59;4998297;28;99285;-61
2023/06/22 00:24:22;;;;;;;10.18;7.90;;;;;;;27.17;49.86;101560.59;5011470;28;97179;-62
2023/06/22 00:26:49;;;;;;;10.13;8.00;;;;;;;27.05;50.32;101564.41;5012590;28;96996;-62
2023/06/22 00:29:18;;;;;;;9.77;8.65;;;;;;;27.18;49.96;101561.44;5011260;28;99773;-61
2023/06/22 00:31:44;;;;;;;10.02;8.15;;;;;;;27.28;49.99;101565.03;5009702;27;98952;-61
2023/06/22 00:34:11;;;;;;;12.25;9.25;;;;;;;27.20;49.41;101552.16;5009922;28;96929;-61
2023/06/22 00:36:40;;;;;;;10.70;8.95;;;;;;;27.11;49.43;101561.13;5008152;28;97143;-60
2023/06/22 00:39:07;;;;;;;11.15;9.60;;;;;;;27.27;49.30;101557.88;5003462;28;99017;-61
2023/06/22 00:41:34;;;;;;;11.40;8.57;;;;;;;27.12;49.68;101559.28;5014358;28;98905;-61
2023/06/22 00:44:01;;;;;;;9.20;8.18;;;;;;;27.01;50.18;101560.28;5005444;28;96829;-62
2023/06/22 00:46:29;;;;;;;9.38;8.45;;;;;;;26.93;50.25;101560.97;5007576;28;97930;-62
2023/06/22 00:48:57;;;;;;;8.85;7.95;;;;;;;27.13;50.15;101561.00;5007304;28;99086;-61
2023/06/22 00:51:24;;;;;;;12.13;8.75;;;;;;;26.95;50.37;101561.72;5009051;28;99340;-61
2023/06/22 00:53:51;;;;;;;10.00;8.43;;;;;;;26.95;50.26;101569.84;5009879;27;97654;-60
2023/06/22 00:56:19;;;;;;;9.93;8.15;;;;;;;27.12;49.92;101567.44;5011338;28;97771;-60
2023/06/22 00:58:47;;;;;;;11.43;8.57;;;;;;;27.12;49.82;101572.84;5014537;28;99336;-61
2023/06/22 01:01:14;;;;;;;11.82;8.32;;;;;;;27.09;50.33;101563.16;5011322;28;99063;-61
2023/06/22 01:03:41;;;;;;;9.73;8.40;;;;;;;27.05;50.01;101566.28;5008636;28;97028;-61
2023/06/22 01:06:11;;;;;;;8.93;8.02;;;;;;;27.02;50.06;101564.72;5006635;28;97631;-61
2023/06/22 01:08:44;;;;;;;10.07;9.02;;;;;;;26.88;50.46;101565.94;5001253;28;99139;-61
2023/06/22 01:11:15;;;;;;;12.52;8.45;;;;;;;26.89;50.30;101574.97;5008217;28;98805;-61
2023/06/22 01:13:50;;;;;;;9.38;8.48;;;;;;;26.87;50.48;101568.78;5003647;28;98800;-61
2023/06/22 01:16:24;;;;;;;9.52;7.63;;;;;;;26.96;50.55;101576.13;5012667;28;96737;-61
2023/06/22 01:18:55;;;;;;;8.57;7.70;;;;;;;26.87;50.82;101576.94;5009580;28;98823;-61
2023/06/22 01:21:24;;;;;;;10.55;8.63;;;;;;;26.66;51.34;101584.28;5016170;28;98775;-60
2023/06/22 01:23:59;;;;;;;8.55;7.65;;;;;;;26.63;51.73;101580.00;5014967;27;100052;-61
2023/06/22 01:26:35;;;;;;;11.23;9.10;;;;;;;26.60;51.99;101572.16;5009240;28;96929;-60
2023/06/22 01:29:07;;;;;;;8.75;7.88;;;;;;;26.79;51.79;101574.91;5004034;28;99249;-60
2023/06/22 01:31:35;;;;;;;9.13;8.18;;;;;;;26.50;52.40;101573.97;5002667;28;100468;-61
2023/06/22 01:34:04;;;;;;;9.77;8.32;;;;;;;26.54;52.40;101578.13;5000999;28;96804;-59
2023/06/22 01:36:31;;;;;;;10.13;9.05;;;;;;;26.72;51.86;101581.00;4997051;28;98411;-61
2023/06/22 01:38:59;;;;;;;10.63;8.95;;;;;;;26.70;51.90;101580.31;5000464;28;99856;-61
2023/06/22 01:41:28;;;;;;;9.32;8.30;;;;;;;26.53;52.12;101585.38;4998725;28;98803;-62
2023/06/22 01:43:56;;;;;;;10.30;8.52;;;;;;;26.67;51.79;101594.13;4996656;27;101040;-61
2023/06/22 01:46:25;;;;;;;14.25;9.07;;;;;;;26.55;52.39;101594.25;4997420;28;98877;-61
2023/06/22 01:48:51;;;;;;;11.20;9.40;;;;;;;26.73;51.62;101593.59;4999612;28;99266;-61
2023/06/22 01:51:18;;;;;;;10.55;8.25;;;;;;;26.65;51.97;101593.44;5000016;28;98949;-62
2023/06/22 01:53:45;;;;;;;14.23;8.27;;;;;;;26.57;52.14;101592.28;4994986;28;97751;-61
2023/06/22 01:56:12;;;;;;;13.60;9.38;;;;;;;26.54;52.69;101589.81;5000444;28;98290;-61
2023/06/22 01:58:47;;;;;;;11.45;8.50;;;;;;;26.44;52.55;101598.91;4998872;27;99213;-62
2023/06/22 02:01:21;;;;;;;11.40;8.52;;;;;;;26.44;52.77;101594.34;4999418;28;98834;-62
2023/06/22 02:03:57;;;;;;;11.02;8.40;;;;;;;26.42;52.60;101593.63;4999101;28;99190;-62
2023/06/22 02:06:28;;;;;;;10.98;8.45;;;;;;;26.56;52.49;101587.84;5000586;28;97131;-62
2023/06/22 02:09:00;;;;;;;10.45;9.35;;;;;;;26.40;53.25;101592.91;5001979;28;98941;-61
2023/06/22 02:11:28;;;;;;;12.95;9.90;;;;;;;26.57;52.67;101588.69;4999462;28;101984;-60
2023/06/22 02:13:56;;;;;;;15.13;10.52;;;;;;;26.62;52.46;101588.28;4999974;28;98523;-61
2023/06/22 02:16:23;;;;;;;13.65;10.07;;;;;;;26.58;52.61;101593.13;4999030;28;97793;-61
2023/06/22 02:18:52;;;;;;;10.98;9.88;;;;;;;26.63;52.80;101593.56;4998990;28;97656;-61
2023/06/22 02:21:18;;;;;;;11.25;9.88;;;;;;;26.47;53.54;101609.47;5003967;28;98571;-60
2023/06/22 02:23:45;;;;;;;12.60;9.82;;;;;;;26.27;54.08;101607.66;5002983;28;97367;-60
2023/06/22 02:26:12;;;;;;;13.75;9.55;;;;;;;26.34;54.10;101606.13;5003858;28;98872;-61
2023/06/22 02:28:39;;;;;;;11.57;8.85;;;;;;;26.27;54.44;101615.78;4998851;28;98938;-61
2023/06/22 02:31:05;;;;;;;13.77;9.73;;;;;;;26.41;54.53;101616.28;5001123;28;99209;-60
2023/06/22 02:33:32;;;;;;;15.68;10.13;;;;;;;26.24;55.30;101613.34;5000392;28;98628;-60
2023/06/22 02:35:59;;;;;;;11.18;9.98;;;;;;;26.16;55.30;101619.41;5005063;28;96916;-60
2023/06/22 02:38:26;;;;;;;10.55;9.13;;;;;;;26.46;54.84;101602.31;5001798;28;97905;-61
2023/06/22 02:40:52;;;;;;;12.98;10.02;;;;;;;26.28;55.53;101607.53;5004352;28;99092;-61
2023/06/22 02:43:18;;;;;;;13.43;9.77;;;;;;;26.28;55.74;101607.53;5002942;28;97110;-63
2023/06/22 02:45:45;;;;;;;11.23;9.90;;;;;;;26.40;55.39;101605.59;5000226;28;96896;-61
2023/06/22 02:48:12;;;;;;;11.75;10.07;;;;;;;26.34;55.29;101614.25;4996588;28;102652;-61
2023/06/22 02:50:38;;;;;;;11.38;10.05;;;;;;;26.68;53.99;101607.56;5003132;28;98969;-61
2023/06/22 02:53:06;;;;;;;16.33;11.07;;;;;;;26.75;53.77;101608.72;5001714;28;97934;-61
2023/06/22 02:55:32;;;;;;;13.15;11.05;;;;;;;26.68;53.73;101609.41;5003331;28;97058;-61
2023/06/22 02:57:59;;;;;;;18.20;10.57;;;;;;;26.78;53.65;101611.16;5001243;28;102405;-61
2023/06/22 03:00:30;;;;;;;16.10;12.00;;;;;;;26.85;53.31;101609.59;5000381;28;98831;-60
2023/06/22 03:02:57;;;;;;;16.08;12.60;;;;;;;26.91;53.39;101614.50;5003484;28;97793;-61
2023/06/22 03:05:24;;;;;;;16.27;12.18;;;;;;;26.92;53.07;101604.50;5000008;28;98800;-60
2023/06/22 03:07:50;;;;;;;13.68;11.00;;;;;;;26.89;53.18;101602.09;5002204;28;98931;-61
2023/06/22 03:10:18;;;;;;;13.23;11.82;;;;;;;26.75;53.74;101608.72;5000637;28;98810;-61
2023/06/22 03:12:44;;;;;;;14.43;12.02;;;;;;;26.99;52.73;101611.09;5001179;28;96943;-60
2023/06/22 03:15:12;;;;;;;12.55;11.25;;;;;;;26.94;52.92;101610.66;5001266;28;97757;-61
2023/06/22 03:17:40;;;;;;;16.50;12.38;;;;;;;26.93;52.77;101601.66;5001332;28;99265;-61
2023/06/22 03:20:10;;;;;;;12.98;11.68;;;;;;;26.91;52.85;101602.81;5001610;28;98386;-60
2023/06/22 03:22:37;;;;;;;16.83;12.02;;;;;;;26.91;52.74;101603.66;5001052;28;96811;-60
2023/06/22 03:25:04;;;;;;;13.98;10.00;;;;;;;27.02;52.73;101596.41;4998269;28;97172;-60
2023/06/22 03:27:31;;;;;;;14.85;10.95;;;;;;;26.94;52.98;101602.53;5000216;28;98661;-61
2023/06/22 03:29:58;;;;;;;12.95;10.77;;;;;;;26.93;52.62;101598.94;4999891;28;99044;-61
2023/06/22 03:32:27;;;;;;;15.82;10.65;;;;;;;26.94;52.49;101605.25;4997860;28;98317;-61
2023/06/22 03:34:54;;;;;;;15.10;10.45;;;;;;;26.94;52.25;101603.38;4999088;28;97466;-60
2023/06/22 03:37:20;;;;;;;13.23;10.50;;;;;;;26.83;52.39;101611.59;4999533;28;99535;-60
2023/06/22 03:39:46;;;;;;;13.48;10.73;;;;;;;26.86;52.32;101610.47;5000301;28;99066;-60
2023/06/22 03:42:13;;;;;;;11.32;9.82;;;;;;;26.88;52.50;101606.63;4998275;28;97363;-60
2023/06/22 03:44:41;;;;;;;10.77;9.48;;;;;;;27.00;52.30;101601.97;5002648;28;98972;-60
2023/06/22 03:47:07;;;;;;;13.65;11.07;;;;;;;26.96;52.07;101600.53;4999918;28;99999;-61
2023/06/22 03:49:34;;;;;;;12.88;9.88;;;;;;;27.00;51.76;101593.81;4999793;28;99121;-61
2023/06/22 03:52:02;;;;;;;11.65;9.27;;;;;;;27.07;51.55;101594.13;5001249;28;97167;-62
2023/06/22 03:54:29;;;;;;;10.50;8.80;;;;;;;26.85;51.23;101600.59;5000777;28;97394;-60
2023/06/22 03:56:56;;;;;;;11.07;9.20;;;;;;;27.01;51.24;101605.53;5001703;28;100463;-60
2023/06/22 03:59:23;;;;;;;10.90;9.02;;;;;;;26.97;50.80;101602.25;5001093;28;98873;-61
2023/06/22 04:01:50;;;;;;;11.73;8.63;;;;;;;26.82;51.57;101601.75;5002174;28;97244;-61
2023/06/22 04:04:18;;;;;;;9.70;8.23;;;;;;;26.92;51.06;101609.94;4998857;28;98195;-61
2023/06/22 04:06:45;;;;;;;13.60;9.32;;;;;;;26.93;50.54;101608.94;5002284;28;98868;-62
2023/06/22 04:09:12;;;;;;;13.82;7.95;;;;;;;27.05;50.38;101613.25;5003240;28;97728;-60
2023/06/22 04:11:38;;;;;;;8.60;7.75;;;;;;;27.10;49.65;101612.84;5008625;28;102108;-60
2023/06/22 04:14:04;;;;;;;8.80;6.65;;;;;;;27.07;49.45;101613.97;5012714;28;97056;-60
2023/06/22 04:16:31;;;;;;;9.98;6.65;;;;;;;27.07;48.83;101611.25;5013335;28;100036;-61
2023/06/22 04:18:58;;;;;;;8.13;6.55;;;;;;;26.96;48.81;101616.81;5011666;28;98926;-61
2023/06/22 04:21:25;;;;;;;8.98;6.25;;;;;;;27.11;49.02;101612.69;5000793;28;98645;-61
2023/06/22 04:23:51;;;;;;;11.38;6.38;;;;;;;27.03;48.90;101617.97;5000495;28;96928;-61
2023/06/22 04:26:20;;;;;;;10.02;6.90;;;;;;;27.01;49.34;101621.81;5002778;28;99502;-61
2023/06/22 04:28:51;;;;;;;9.52;6.35;;;;;;;27.15;48.81;101622.28;5001440;28;98803;-65
2023/06/22 04:31:18;;;;;;;8.05;5.88;;;;;;;27.30;48.50;101631.72;5003464;28;98771;-62
2023/06/22 04:33:44;;;;;;;8.13;6.43;;;;;;;27.51;47.63;101636.13;5005325;28;97288;-62
2023/06/22 04:36:13;;;;;;;8.20;6.15;;;;;;;27.69;47.20;101634.47;5000818;28;99456;-61
2023/06/22 04:38:39;;;;;;;9.02;6.50;;;;;;;27.70;47.19;101633.44;5008124;28;98890;-61
2023/06/22 04:41:06;;;;;;;8.43;5.97;;;;;;;27.65;46.49;101638.47;5007822;27;98391;-61
2023/06/22 04:43:35;;;;;;;11.50;6.32;;;;;;;27.85;45.55;101637.44;5006981;28;96978;-61
2023/06/22 04:46:03;;;;;;;9.82;6.53;;;;;;;27.48;46.42;101645.44;5011254;28;99433;-61
2023/06/22 05:05:06;;;;;;;8.95;4.50;;;;;;;28.53;42.62;101649.06;4994312;27;1362319;-64
2023/06/22 05:07:33;;;;;;;10.48;4.38;;;;;;;28.83;41.49;101637.06;5050103;27;98982;-65
2023/06/22 05:09:59;;;;;;;8.77;4.05;;;;;;;28.80;41.42;101640.97;5048622;27;98877;-65
2023/06/22 05:12:26;;;;;;;8.85;4.20;;;;;;;28.83;40.92;101635.19;5045996;27;98416;-64
2023/06/22 05:14:52;;;;;;;4.43;3.70;;;;;;;28.92;40.53;101638.88;5042536;27;98428;-65
2023/06/22 05:17:19;;;;;;;9.07;4.18;;;;;;;28.84;40.75;101636.91;5038000;27;102442;-63
2023/06/22 05:19:48;;;;;;;7.68;3.67;;;;;;;28.83;40.61;101642.50;5039331;27;99128;-65
2023/06/22 05:22:16;;;;;;;9.05;3.70;;;;;;;28.95;40.45;101643.19;5041407;27;97707;-64
2023/06/22 05:24:43;;;;;;;8.13;3.33;;;;;;;28.96;40.19;101636.69;5039593;27;96896;-63
2023/06/22 05:27:09;;;;;;;16.17;4.07;;;;;;;28.76;40.62;101644.97;5040445;27;97863;-64
2023/06/22 05:29:36;;;;;;;10.25;3.50;;;;;;;28.62;40.77;101645.41;5041380;27;97501;-64
2023/06/22 05:32:03;;;;;;;3.88;3.45;;;;;;;28.80;40.60;101649.13;5040685;27;99064;-63
2023/06/22 05:34:29;;;;;;;5.82;3.63;;;;;;;28.65;40.37;101642.41;5038251;27;97043;-64
2023/06/22 05:36:55;;;;;;;6.72;3.88;;;;;;;28.71;40.26;101641.81;5039078;27;98881;-65
2023/06/22 05:39:23;;;;;;;17.98;4.20;;;;;;;28.63;39.91;101643.56;5041567;27;99087;-63
2023/06/22 05:41:49;;;;;;;7.68;3.97;;;;;;;28.61;40.33;101643.75;5044902;27;98553;-64
2023/06/22 05:44:16;;;;;;;9.90;3.95;;;;;;;28.62;40.02;101659.00;5041826;27;98517;-64
2023/06/22 05:46:46;;;;;;;6.65;3.60;;;;;;;28.96;39.42;101658.47;5045789;27;98868;-73
2023/06/22 05:49:13;;;;;;;6.15;3.30;;;;;;;28.98;39.19;101660.03;5041982;27;101518;-71
2023/06/22 05:51:39;;;;;;;5.05;3.38;;;;;;;29.25;38.55;101673.63;5039163;27;98035;-72
2023/06/22 05:54:06;;;;;;;8.85;4.07;;;;;;;29.68;38.14;101678.34;5041372;27;97006;-70
2023/06/22 05:56:33;;;;;;;9.55;3.72;;;;;;;29.82;37.91;101676.94;5045857;27;99123;-72
2023/06/22 05:59:00;;;;;;;5.47;3.30;;;;;;;29.72;37.17;101676.19;5041674;27;100442;-71
2023/06/22 06:01:26;;;;;;;6.35;4.18;;;;;;;29.58;37.81;101676.72;5035090;27;99045;-71
2023/06/22 06:03:53;;;;;;;7.78;3.78;;;;;;;29.14;38.61;101681.16;5030064;27;96990;-72
2023/06/22 06:06:21;;;;;;;8.73;4.30;;;;;;;28.95;39.64;101670.38;5028830;27;97873;-71
2023/06/22 06:08:47;;;;;;;12.27;4.47;;;;;;;29.27;39.73;101668.03;5028830;27;101024;-71
2023/06/22 06:11:13;;;;;;;12.05;4.65;;;;;;;28.96;39.87;101666.63;5029375;27;98743;-72
2023/06/22 06:13:41;;;;;;;9.13;4.57;;;;;;;29.41;39.42;101672.97;5031315;27;98961;-71
2023/06/22 06:16:07;;;;;;;9.82;3.78;;;;;;;29.10;39.51;101664.25;5033568;27;98303;-71
2023/06/22 06:18:34;;;;;;;6.32;4.00;;;;;;;29.40;39.06;101660.38;5037174;27;98915;-72
2023/06/22 06:21:00;;;;;;;6.80;3.83;;;;;;;29.51;38.77;101662.00;5029338;27;97333;-71
2023/06/22 06:23:26;;;;;;;8.52;3.78;;;;;;;29.23;38.25;101659.31;5030182;27;96809;-71
2023/06/22 06:25:53;;;;;;;5.88;3.47;;;;;;;29.52;37.71;101653.69;5030590;27;99001;-70
2023/06/22 06:28:19;;;;;;;6.95;3.50;;;;;;;29.49;37.63;101656.72;5029312;27;98877;-72
2023/06/22 06:30:47;;;;;;;4.05;3.10;;;;;;;29.59;37.64;101668.41;5027532;27;96862;-72
2023/06/22 06:33:13;;;;;;;6.88;3.08;;;;;;;29.62;37.50;101664.50;5029288;27;97049;-71
2023/06/22 06:35:40;;;;;;;5.22;3.30;;;;;;;29.53;37.76;101671.75;5030475;27;99283;-72
2023/06/22 06:38:06;;;;;;;4.13;3.38;;;;;;;29.50;37.59;101672.03;5026748;27;102197;-73
2023/06/22 06:40:32;;;;;;;7.70;3.33;;;;;;;29.40;37.31;101682.16;5029733;27;99087;-73
2023/06/22 06:42:59;;;;;;;6.47;4.00;;;;;;;29.88;37.00;101681.75;5029187;27;98699;-77
2023/06/22 06:45:28;;;;;;;10.82;3.33;;;;;;;30.24;36.00;101676.28;5027448;27;99327;-75
2023/06/22 06:47:55;;;;;;;7.20;3.30;;;;;;;30.41;35.54;101676.22;5028914;27;99028;-74
2023/06/22 06:50:22;;;;;;;5.32;3.13;;;;;;;30.46;35.39;101671.13;5025564;27;98361;-73
2023/06/22 06:52:49;;;;;;;4.53;3.05;;;;;;;31.00;34.90;101668.19;5022390;27;97601;-76
2023/06/22 06:55:16;;;;;;;5.35;2.85;;;;;;;31.04;34.42;101662.25;5028318;27;99114;-73
2023/06/22 06:57:43;;;;;;;4.05;3.03;;;;;;;31.15;33.81;101655.66;5030043;27;101761;-74
2023/06/22 07:00:13;;;;;;;5.32;2.97;;;;;;;31.15;33.67;101658.38;5026021;27;97949;-73
2023/06/22 07:02:41;;;;;;;6.88;3.20;;;;;;;31.38;33.78;101655.88;5024663;27;98256;-75
2023/06/22 07:05:09;;;;;;;4.80;2.92;;;;;;;31.63;33.11;101655.78;5026268;27;99261;-74
2023/06/22 07:07:36;;;;;;;7.72;2.92;;;;;;;31.46;33.28;101650.44;5027290;27;99097;-74
2023/06/22 07:10:03;;;;;;;4.95;2.90;;;;;;;31.81;32.81;101643.84;5026108;27;97301;-75
2023/06/22 07:12:30;;;;;;;3.50;2.63;;;;;;;31.99;31.26;101637.16;5029731;27;96970;-72
2023/06/22 07:15:03;;;;;;;5.60;2.85;;;;;;;32.08;31.50;101639.88;5027205;27;99139;-75
2023/06/22 07:17:29;;;;;;;4.65;3.25;;;;;;;32.11;30.97;101628.59;5027474;27;101562;-73
2023/06/22 07:19:55;;;;;;;7.57;3.15;;;;;;;32.28;31.00;101633.06;5027590;27;97170;-73
2023/06/22 07:22:23;;;;;;;6.70;2.90;;;;;;;32.06;31.01;101629.13;5033443;27;96926;-74
2023/06/22 07:24:50;;;;;;;7.75;2.78;;;;;;;31.95;30.95;101633.06;5021864;27;99867;-74
2023/06/22 07:27:19;;;;;;;15.50;4.00;;;;;;;31.65;31.08;101628.28;5032546;27;100796;-74
2023/06/22 07:29:45;;;;;;;3.78;2.97;;;;;;;31.84;31.43;101622.47;5033457;27;100802;-75
2023/06/22 07:32:11;;;;;;;21.05;4.38;;;;;;;31.94;31.48;101631.34;5038413;27;97307;-76
2023/06/22 07:34:38;;;;;;;8.15;3.17;;;;;;;31.80;31.56;101615.66;5041413;27;100748;-75
2023/06/22 07:37:05;;;;;;;5.05;2.80;;;;;;;32.02;31.07;101617.69;5037138;27;101644;-77
2023/06/22 07:39:33;;;;;;;4.57;2.58;;;;;;;32.44;29.53;101617.44;5035299;27;97780;-74
2023/06/22 07:41:59;;;;;;;3.40;2.33;;;;;;;32.54;29.49;101622.72;5033016;27;98743;-73
2023/06/22 07:44:25;;;;;;;3.85;2.75;;;;;;;32.44;29.61;101622.03;5032193;27;98968;-74
2023/06/22 07:46:52;;;;;;;9.43;2.88;;;;;;;32.28;29.33;101616.63;5036316;27;101636;-74
2023/06/22 07:49:18;;;;;;;6.20;2.47;;;;;;;32.12;29.34;101619.38;5033468;27;97000;-73
2023/06/22 07:51:45;;;;;;;7.28;2.30;;;;;;;32.50;28.34;101625.97;5030158;27;96881;-77
2023/06/22 07:54:11;;;;;;;3.97;1.90;;;;;;;32.71;27.38;101618.91;5037288;27;99190;-74
2023/06/22 07:56:39;;;;;;;4.93;2.60;;;;;;;32.74;27.41;101613.09;5032542;27;97964;-74
2023/06/22 07:59:06;;;;;;;2.38;1.83;;;;;;;32.94;27.13;101618.13;5028571;27;100186;-75
2023/06/22 08:01:32;;;;;;;6.93;2.10;;;;;;;32.55;27.52;101609.91;5033465;27;97731;-75
2023/06/22 08:03:58;;;;;;;10.13;2.78;;;;;;;32.36;28.29;101608.41;5024877;27;101782;-74
2023/06/22 08:06:25;;;;;;;9.10;2.72;;;;;;;32.43;28.31;101615.72;5027012;27;97515;-75
2023/06/22 08:08:54;;;;;;;5.60;3.35;;;;;;;32.63;27.83;101607.94;5029785;27;97109;-74
2023/06/22 08:11:22;;;;;;;4.53;2.05;;;;;;;32.50;27.60;101615.00;5027512;27;96858;-73
2023/06/22 08:13:50;;;;;;;3.53;2.25;;;;;;;32.36;27.46;101605.69;5028983;27;102186;-74
2023/06/22 08:16:16;;;;;;;2.40;2.20;;;;;;;32.52;27.59;101611.09;5028415;27;98500;-74
2023/06/22 08:18:42;;;;;;;3.03;2.17;;;;;;;32.57;27.72;101610.53;5023411;27;100669;-73
2023/06/22 08:21:09;;;;;;;12.00;2.55;;;;;;;32.26;28.56;101614.06;5027192;27;99879;-74
2023/06/22 08:23:35;;;;;;;4.20;2.08;;;;;;;32.24;28.63;101616.13;5030372;27;98343;-74
2023/06/22 08:26:02;;;;;;;7.32;2.40;;;;;;;32.21;28.59;101621.09;5033457;27;101436;-73
2023/06/22 08:28:28;;;;;;;3.33;2.13;;;;;;;32.01;27.83;101613.25;5033108;27;96933;-73
2023/06/22 08:30:56;;;;;;;3.53;1.95;;;;;;;31.99;28.10;101608.97;5028831;27;97383;-75
2023/06/22 08:33:28;;;;;;;4.65;2.05;;;;;;;32.28;28.11;101622.97;5027979;27;98426;-73
2023/06/22 08:35:54;;;;;;;7.82;2.58;;;;;;;32.43;28.04;101620.34;5027718;27;98942;-75
2023/06/22 08:38:21;;;;;;;7.25;2.20;;;;;;;32.54;27.06;101616.38;5032754;27;96836;-74
2023/06/22 08:40:47;;;;;;;14.65;2.85;;;;;;;32.46;27.39;101609.06;5027063;27;98552;-74
2023/06/22 08:43:13;;;;;;;5.18;2.10;;;;;;;32.93;26.82;101608.19;5030761;27;101611;-72
2023/06/22 08:45:40;;;;;;;5.25;2.53;;;;;;;32.52;26.98;101602.88;5029034;27;98820;-74
2023/06/22 08:48:07;;;;;;;4.88;2.20;;;;;;;32.35;27.37;101615.78;5033865;27;97622;-74
2023/06/22 08:50:34;;;;;;;4.70;2.63;;;;;;;32.56;27.08;101611.59;5028550;27;96996;-74
2023/06/22 08:53:00;;;;;;;5.95;2.25;;;;;;;32.47;27.65;101618.13;5031089;27;98311;-74
2023/06/22 08:55:27;;;;;;;8.80;3.22;;;;;;;32.47;27.56;101612.66;5031453;27;99551;-73
2023/06/22 08:57:53;;;;;;;10.68;2.70;;;;;;;32.56;27.40;101611.59;5030859;27;96885;-74
2023/06/22 09:00:20;;;;;;;4.38;2.40;;;;;;;32.63;27.19;101607.94;5029562;27;97413;-73
2023/06/22 09:02:47;;;;;;;4.38;2.78;;;;;;;32.50;27.46;101606.81;5026119;27;99373;-74
2023/06/22 09:05:15;;;;;;;5.57;2.28;;;;;;;32.87;27.34;101606.19;5030389;27;98966;-74
2023/06/22 09:07:43;;;;;;;9.55;2.60;;;;;;;33.06;26.81;101612.06;5028750;27;97326;-76
2023/06/22 09:10:09;;;;;;;5.18;2.88;;;;;;;33.38;26.76;101608.28;5029990;27;97136;-74
2023/06/22 09:12:37;;;;;;;5.43;2.33;;;;;;;33.38;27.49;101599.22;5034932;27;98922;-74
2023/06/22 09:15:06;;;;;;;131.55;9.95;;;;;;;33.79;27.16;101600.63;5034565;27;99102;-74
2023/06/22 09:17:33;;;;;;;11.60;3.20;;;;;;;33.84;26.89;101608.28;5027932;27;97547;-74
2023/06/22 09:20:00;;;;;;;3.72;2.60;;;;;;;33.91;27.04;101603.75;5025728;27;99555;-74
2023/06/22 09:22:29;;;;;;;27.13;3.65;;;;;;;33.46;27.15;101600.00;5023502;27;101214;-74
2023/06/22 09:24:55;;;;;;;5.32;2.90;;;;;;;33.52;27.12;101602.00;5028491;27;98927;-74
2023/06/22 09:27:22;;;;;;;7.35;3.55;;;;;;;33.25;26.96;101602.56;5027394;27;96798;-75
2023/06/22 09:29:48;;;;;;;8.00;3.70;;;;;;;33.45;26.86;101589.22;5028588;27;96974;-75
2023/06/22 09:32:15;;;;;;;5.00;2.55;;;;;;;33.42;27.00;101601.38;5024897;27;97846;-73
2023/06/22 09:34:41;;;;;;;9.57;3.10;;;;;;;33.52;26.80;101598.41;5023778;27;97437;-75
2023/06/22 09:37:07;;;;;;;6.90;2.72;;;;;;;33.21;26.63;101593.00;5032827;27;97562;-74
2023/06/22 09:39:36;;;;;;;5.18;2.67;;;;;;;33.37;26.33;101587.41;5033538;27;98572;-75
2023/06/22 09:42:02;;;;;;;5.68;2.42;;;;;;;33.44;26.57;101577.41;5032413;27;98941;-74
2023/06/22 09:44:28;;;;;;;9.00;2.80;;;;;;;33.38;26.89;101575.41;5034788;27;97724;-74
2023/06/22 09:46:55;;;;;;;6.45;2.40;;;;;;;33.15;26.51;101579.97;5034906;27;97099;-75
2023/06/22 09:49:21;;;;;;;8.82;2.78;;;;;;;32.86;27.58;101579.84;5035047;27;96929;-76
2023/06/22 09:51:49;;;;;;;3.38;2.25;;;;;;;32.28;27.76;101575.63;5031969;27;99207;-73
2023/06/22 09:54:15;;;;;;;6.20;2.85;;;;;;;33.01;27.60;101573.44;5028338;27;99029;-74
2023/06/22 09:56:43;;;;;;;35.00;4.38;;;;;;;33.00;27.40;101579.94;5035768;27;96826;-76
2023/06/22 09:59:09;;;;;;;4.68;3.05;;;;;;;33.00;27.42;101587.28;5034902;27;97829;-74
2023/06/22 10:01:36;;;;;;;5.53;2.58;;;;;;;32.99;27.10;101591.91;5032030;27;97260;-76
2023/06/22 10:04:03;;;;;;;7.28;2.97;;;;;;;32.73;26.84;101586.75;5033215;27;97667;-74
2023/06/22 10:06:29;;;;;;;3.05;2.75;;;;;;;32.69;27.42;101593.59;5035250;27;96837;-76
2023/06/22 10:08:56;;;;;;;3.08;2.78;;;;;;;33.09;27.27;101588.94;5034144;27;96808;-75
2023/06/22 10:11:26;;;;;;;5.38;2.53;;;;;;;33.25;27.67;101583.38;5031174;27;99102;-80
2023/06/22 10:13:54;;;;;;;5.07;2.92;;;;;;;32.83;28.74;101581.03;5031932;27;101172;-75
2023/06/22 10:16:21;;;;;;;8.05;3.05;;;;;;;32.61;28.08;101582.69;5032344;27;96739;-75
2023/06/22 10:18:47;;;;;;;4.38;3.15;;;;;;;32.73;28.53;101577.69;5035724;27;97457;-75
2023/06/22 10:21:13;;;;;;;6.15;2.80;;;;;;;33.09;28.64;101578.81;5031032;27;98984;-76
2023/06/22 10:23:40;;;;;;;3.10;2.63;;;;;;;33.20;28.13;101575.72;5038429;27;96806;-75
2023/06/22 10:26:06;;;;;;;3.55;2.95;;;;;;;33.20;28.15;101574.88;5033690;27;97490;-75
2023/06/22 10:28:32;;;;;;;3.70;3.33;;;;;;;33.21;28.21;101569.19;5031488;27;97512;-76
2023/06/22 10:31:00;;;;;;;3.85;2.60;;;;;;;33.33;27.86;101563.31;5027802;27;98968;-74
2023/06/22 10:33:27;;;;;;;3.47;2.55;;;;;;;33.31;28.55;101566.22;5032913;27;97508;-76
2023/06/22 10:35:53;;;;;;;5.68;3.30;;;;;;;33.70;27.38;101567.94;5038444;27;97964;-74
2023/06/22 10:38:19;;;;;;;8.55;3.85;;;;;;;33.87;27.46;101561.31;5035617;27;97023;-74
2023/06/22 10:40:46;;;;;;;4.15;3.08;;;;;;;33.65;27.45;101564.91;5031846;27;99204;-76
2023/06/22 10:43:13;;;;;;;4.43;3.25;;;;;;;33.57;27.87;101566.69;5032810;27;97529;-75
2023/06/22 10:45:39;;;;;;;4.28;2.95;;;;;;;33.60;27.03;101565.47;5033758;27;96914;-74
2023/06/22 10:48:07;;;;;;;6.53;2.95;;;;;;;33.77;27.90;101552.50;5033524;27;96867;-74
2023/06/22 10:50:33;;;;;;;5.75;2.92;;;;;;;33.71;27.20;101547.75;5030140;27;97670;-76
2023/06/22 10:53:00;;;;;;;6.85;3.08;;;;;;;33.62;27.40;101546.94;5026590;27;101096;-75
2023/06/22 10:55:26;;;;;;;3.95;2.65;;;;;;;33.37;28.41;101545.47;5028237;27;97039;-74
2023/06/22 10:57:52;;;;;;;5.60;3.60;;;;;;;33.09;28.65;101534.16;5033095;27;97132;-75
2023/06/22 11:00:19;;;;;;;5.75;3.22;;;;;;;33.17;28.92;101536.84;5029785;27;98894;-75
2023/06/22 11:02:46;;;;;;;28.85;5.90;;;;;;;33.17;29.30;101536.84;5030055;27;100298;-76
2023/06/22 11:05:13;;;;;;;8.77;3.30;;;;;;;33.44;28.48;101530.84;5028998;27;97466;-78
2023/06/22 11:07:43;;;;;;;8.20;3.45;;;;;;;33.71;27.83;101523.09;5027382;27;97731;-74
2023/06/22 11:10:10;;;;;;;11.07;3.50;;;;;;;33.71;27.76;101518.47;5024528;27;98114;-75
2023/06/22 11:12:36;;;;;;;6.90;3.17;;;;;;;33.46;28.09;101527.94;5031858;27;98860;-75
2023/06/22 11:15:03;;;;;;;6.63;3.30;;;;;;;32.97;28.18;101532.88;5030110;27;97226;-76
2023/06/22 11:17:29;;;;;;;9.63;3.10;;;;;;;33.40;27.59;101536.88;5027725;28;97143;-74
2023/06/22 11:19:55;;;;;;;16.20;4.05;;;;;;;33.60;28.01;101529.84;5028631;27;102342;-76
2023/06/22 11:22:23;;;;;;;10.07;3.90;;;;;;;33.75;27.04;101524.41;5028654;27;98826;-75
2023/06/22 11:24:49;;;;;;;3.95;3.00;;;;;;;34.40;26.90;101513.56;5031028;27;97867;-76
2023/06/22 11:27:16;;;;;;;3.80;3.30;;;;;;;34.50;25.78;101505.03;5029603;27;97534;-73
2023/06/22 11:29:42;;;;;;;4.68;3.00;;;;;;;34.53;25.70;101501.94;5028834;27;98959;-74
2023/06/22 11:32:09;;;;;;;5.10;2.78;;;;;;;34.74;25.40;101504.72;5026088;27;98848;-74
2023/06/22 11:34:35;;;;;;;5.15;3.50;;;;;;;34.91;25.22;101505.34;5029078;27;97408;-75
2023/06/22 11:37:02;;;;;;;5.95;3.30;;;;;;;34.92;25.07;101502.38;5031142;27;97119;-75